Time;durP1;ratioP1;P1;durP2;ratioP2;P2;SDS_P1;SDS_P2;PMS_P1;PMS_P2;Temp;Humidity;BMP_temperature;BMP_pressure;BME280_temperature;BME280_humidity;BME280_pressure;Samples;Min_cycle;Max_cycle;Signal;HPM_P1;HPM_P2
2023/08/31 00:03:03;;;;;;;10.60;5.50;;;;;;;17.21;100.00;99698.96;105645;1261;98430;-84
2023/08/31 00:05:51;;;;;;;6.10;5.50;;;;;;;17.17;100.00;99700.09;105520;1260;102166;-85
2023/08/31 00:08:37;;;;;;;7.50;5.80;;;;;;;17.13;100.00;99701.23;105624;1261;99277;-83
2023/08/31 00:11:24;;;;;;;11.80;6.20;;;;;;;17.11;100.00;99699.92;105614;1266;97961;-84
2023/08/31 00:14:09;;;;;;;9.40;5.80;;;;;;;17.11;100.00;99698.89;105619;1266;97984;-85
2023/08/31 00:16:57;;;;;;;7.60;5.80;;;;;;;17.09;100.00;99699.35;105608;1264;99720;-84
2023/08/31 00:19:43;;;;;;;6.10;5.40;;;;;;;17.08;100.00;99702.13;105622;1263;101458;-84
2023/08/31 00:22:29;;;;;;;6.80;5.90;;;;;;;17.07;100.00;99700.66;105507;1270;100365;-84
2023/08/31 00:25:14;;;;;;;6.50;5.80;;;;;;;17.06;100.00;99701.84;105652;1266;98501;-85
2023/08/31 00:28:04;;;;;;;8.70;5.50;;;;;;;17.06;100.00;99701.95;105549;1261;98037;-85
2023/08/31 00:30:51;;;;;;;6.20;5.30;;;;;;;17.07;100.00;99702.78;105782;1264;98440;-86
2023/08/31 00:33:38;;;;;;;5.90;5.00;;;;;;;17.07;100.00;99697.87;105608;1261;101353;-83
2023/08/31 00:36:23;;;;;;;6.20;5.40;;;;;;;17.06;100.00;99697.52;105379;1266;100716;-83
2023/08/31 00:39:10;;;;;;;9.00;6.00;;;;;;;17.03;100.00;99699.76;105471;1267;99009;-83
2023/08/31 00:41:57;;;;;;;6.80;5.80;;;;;;;17.01;100.00;99695.40;105546;1261;98161;-86
2023/08/31 00:44:42;;;;;;;7.90;5.70;;;;;;;17.02;100.00;99697.63;105460;1267;150321;-84
2023/08/31 00:47:27;;;;;;;7.50;6.10;;;;;;;17.03;100.00;99698.90;105474;1261;101484;-83
2023/08/31 00:50:13;;;;;;;7.40;5.60;;;;;;;17.04;100.00;99698.05;105627;1264;99174;-83
2023/08/31 00:52:59;;;;;;;6.00;5.40;;;;;;;17.04;100.00;99696.20;105485;1261;99172;-84
2023/08/31 00:55:45;;;;;;;7.00;5.20;;;;;;;17.04;100.00;99697.61;105585;1261;97937;-84
2023/08/31 00:58:31;;;;;;;7.40;5.70;;;;;;;17.02;100.00;99701.09;105438;1261;98407;-84
2023/08/31 01:01:49;;;;;;;6.30;5.50;;;;;;;16.99;100.00;99694.28;105500;1261;101480;-84
2023/08/31 01:04:55;;;;;;;6.10;5.30;;;;;;;16.96;100.00;99695.21;105559;1265;99104;-85
2023/08/31 01:07:52;;;;;;;7.60;5.20;;;;;;;16.94;100.00;99693.85;105589;1264;98381;-85
2023/08/31 01:11:17;;;;;;;5.90;5.30;;;;;;;16.95;100.00;99694.83;105484;1261;98192;-85
2023/08/31 01:14:11;;;;;;;6.70;6.00;;;;;;;16.95;100.00;99700.23;105374;1261;98134;-84
2023/08/31 01:17:00;;;;;;;8.40;5.60;;;;;;;16.94;100.00;99705.30;105501;1266;101378;-85
2023/08/31 01:19:50;;;;;;;7.10;6.00;;;;;;;16.92;100.00;99707.77;105519;1261;100453;-83
2023/08/31 01:22:36;;;;;;;9.00;5.40;;;;;;;16.90;100.00;99710.29;105844;1261;98423;-83
2023/08/31 01:25:22;;;;;;;6.40;5.20;;;;;;;16.89;100.00;99710.33;105782;1261;98049;-83
2023/08/31 01:28:09;;;;;;;6.00;5.40;;;;;;;16.88;100.00;99708.69;105701;1266;98420;-85
2023/08/31 01:30:55;;;;;;;6.20;5.60;;;;;;;16.88;100.00;99710.73;106181;1261;101393;-84
2023/08/31 01:33:40;;;;;;;7.60;5.60;;;;;;;16.88;100.00;99714.54;105698;1261;100363;-84
2023/08/31 01:36:29;;;;;;;10.20;5.70;;;;;;;16.87;100.00;99718.64;105384;1269;100100;-84
2023/08/31 01:39:29;;;;;;;6.10;5.50;;;;;;;16.87;100.00;99716.14;105503;1260;97904;-83
2023/08/31 01:42:16;;;;;;;7.00;6.10;;;;;;;16.86;100.00;99717.54;105690;1261;99770;-84
2023/08/31 01:45:04;;;;;;;7.20;5.60;;;;;;;16.87;100.00;99715.88;105520;1261;102674;-84
2023/08/31 01:47:50;;;;;;;6.30;5.20;;;;;;;16.87;100.00;99716.47;105434;1261;99223;-85
2023/08/31 01:50:37;;;;;;;5.30;4.80;;;;;;;16.86;100.00;99710.50;105694;1266;97895;-84
2023/08/31 01:53:23;;;;;;;6.80;5.90;;;;;;;16.86;100.00;99710.77;105668;1261;97936;-85
2023/08/31 01:56:08;;;;;;;5.70;5.20;;;;;;;16.87;100.00;99709.16;105510;1260;97966;-84
2023/08/31 01:58:54;;;;;;;6.80;5.20;;;;;;;16.86;100.00;99713.70;105495;1267;103242;-84
2023/08/31 02:01:40;;;;;;;6.30;5.70;;;;;;;16.85;100.00;99711.98;105444;1261;99202;-84
2023/08/31 02:04:25;;;;;;;6.90;5.90;;;;;;;16.82;100.00;99715.35;105798;1261;98530;-85
2023/08/31 02:07:10;;;;;;;8.90;5.60;;;;;;;16.81;100.00;99720.97;105391;1261;98092;-85
2023/08/31 02:09:56;;;;;;;8.20;5.50;;;;;;;16.79;100.00;99721.00;105803;1261;98524;-85
2023/08/31 02:12:41;;;;;;;7.80;5.00;;;;;;;16.77;100.00;99722.65;105462;1269;101431;-84
2023/08/31 02:15:27;;;;;;;7.40;6.20;;;;;;;16.75;100.00;99723.20;105749;1264;99243;-84
2023/08/31 02:18:12;;;;;;;5.30;4.80;;;;;;;16.73;100.00;99726.91;105556;1264;98061;-84
2023/08/31 02:20:57;;;;;;;5.10;4.60;;;;;;;16.70;100.00;99723.13;105486;1261;97886;-85
2023/08/31 02:23:43;;;;;;;5.60;4.60;;;;;;;16.68;100.00;99721.92;105651;1267;98494;-84
2023/08/31 02:26:28;;;;;;;6.90;3.80;;;;;;;16.67;100.00;99720.55;105586;1267;101447;-83
2023/08/31 02:29:14;;;;;;;3.60;3.20;;;;;;;16.66;100.00;99720.14;105878;1261;100054;-84
2023/08/31 02:31:59;;;;;;;4.90;3.00;;;;;;;16.65;100.00;99721.54;105863;1264;99273;-86
2023/08/31 02:34:45;;;;;;;4.70;3.10;;;;;;;16.66;100.00;99723.61;105518;1266;98033;-84
2023/08/31 02:37:31;;;;;;;4.10;2.60;;;;;;;16.66;100.00;99721.40;105659;1261;98583;-83
2023/08/31 02:40:17;;;;;;;3.90;2.70;;;;;;;16.66;100.00;99724.05;105639;1261;102456;-86
2023/08/31 02:43:03;;;;;;;2.60;2.40;;;;;;;16.67;100.00;99725.36;105455;1267;100456;-82
2023/08/31 02:45:48;;;;;;;3.10;2.40;;;;;;;16.68;100.00;99723.59;105800;1266;98092;-83
2023/08/31 02:48:34;;;;;;;3.30;2.30;;;;;;;16.67;100.00;99727.10;105659;1261;98414;-84
2023/08/31 02:51:20;;;;;;;4.90;2.80;;;;;;;16.64;100.00;99729.69;105410;1261;98429;-83
2023/08/31 02:54:05;;;;;;;2.80;2.30;;;;;;;16.63;100.00;99737.41;105649;1261;102047;-84
2023/08/31 02:56:52;;;;;;;4.20;2.40;;;;;;;16.60;100.00;99735.70;105413;1265;99198;-83
2023/08/31 02:59:37;;;;;;;2.60;2.40;;;;;;;16.60;100.00;99738.62;105549;1261;99257;-83
2023/08/31 03:02:23;;;;;;;4.20;2.70;;;;;;;16.60;100.00;99737.86;105614;1261;97994;-84
2023/08/31 03:05:09;;;;;;;3.00;2.60;;;;;;;16.59;100.00;99738.60;105683;1266;96759;-85
2023/08/31 03:07:55;;;;;;;4.80;3.10;;;;;;;16.58;100.00;99742.41;105753;1266;102187;-83
2023/08/31 03:10:40;;;;;;;3.00;2.70;;;;;;;16.59;100.00;99743.34;105737;1260;100451;-84
2023/08/31 03:13:26;;;;;;;5.30;3.00;;;;;;;16.57;100.00;99744.63;105430;1263;98568;-84
2023/08/31 03:16:12;;;;;;;3.70;3.40;;;;;;;16.55;100.00;99745.84;105615;1268;97908;-86
2023/08/31 03:18:58;;;;;;;4.00;3.30;;;;;;;16.56;100.00;99744.66;105768;1260;98407;-85
2023/08/31 03:21:43;;;;;;;6.20;3.60;;;;;;;16.57;100.00;99744.45;105727;1262;101407;-84
2023/08/31 03:24:29;;;;;;;3.80;3.40;;;;;;;16.56;100.00;99748.92;105473;1267;99172;-83
2023/08/31 03:27:16;;;;;;;3.80;3.20;;;;;;;16.55;100.00;99753.08;105660;1266;99568;-84
2023/08/31 03:30:04;;;;;;;4.00;3.60;;;;;;;16.56;100.00;99754.98;105909;1261;98049;-84
2023/08/31 03:32:50;;;;;;;3.60;3.20;;;;;;;16.55;100.00;99756.70;105370;1261;98395;-85
2023/08/31 03:35:36;;;;;;;2.90;2.60;;;;;;;16.52;100.00;99761.30;105500;1264;101511;-83
2023/08/31 03:38:22;;;;;;;2.70;2.50;;;;;;;16.49;100.00;99760.25;105450;1261;99170;-83
2023/08/31 03:41:08;;;;;;;5.30;2.40;;;;;;;16.47;100.00;99760.05;105484;1261;97972;-83
2023/08/31 03:43:53;;;;;;;4.80;2.10;;;;;;;16.46;100.00;99761.65;105470;1263;98118;-84
2023/08/31 03:46:42;;;;;;;4.70;2.30;;;;;;;16.42;100.00;99765.10;105752;1260;98493;-82
2023/08/31 03:49:28;;;;;;;3.00;2.40;;;;;;;16.38;100.00;99767.99;105706;1261;102165;-84
2023/08/31 03:52:13;;;;;;;2.80;2.10;;;;;;;16.35;100.00;99772.29;105579;1264;99726;-85
2023/08/31 03:55:00;;;;;;;2.40;1.80;;;;;;;16.34;100.00;99772.91;105370;1261;98835;-84
2023/08/31 03:57:45;;;;;;;4.90;2.60;;;;;;;16.35;100.00;99776.43;105368;1261;98561;-84
2023/08/31 04:00:38;;;;;;;3.90;2.00;;;;;;;16.35;100.00;99778.00;105593;1261;97934;-84
2023/08/31 04:03:24;;;;;;;2.70;2.10;;;;;;;16.33;100.00;99778.40;105705;1261;102505;-85
2023/08/31 04:06:09;;;;;;;3.60;2.00;;;;;;;16.29;100.00;99776.48;105839;1261;99827;-84
2023/08/31 04:08:55;;;;;;;2.60;2.40;;;;;;;16.28;100.00;99777.23;105684;1264;98600;-83
2023/08/31 04:11:40;;;;;;;2.70;2.20;;;;;;;16.29;100.00;99778.60;105574;1269;97832;-85
2023/08/31 04:14:27;;;;;;;2.40;2.20;;;;;;;16.30;100.00;99784.02;105492;1267;98085;-83
2023/08/31 04:17:13;;;;;;;4.50;2.00;;;;;;;16.30;100.00;99783.37;105833;1265;101957;-82
2023/08/31 04:19:58;;;;;;;3.00;1.70;;;;;;;16.31;100.00;99784.09;105633;1261;99192;-85
2023/08/31 04:22:47;;;;;;;2.30;2.10;;;;;;;16.32;100.00;99785.52;105810;1261;98980;-85
2023/08/31 04:25:33;;;;;;;2.20;2.00;;;;;;;16.33;100.00;99786.08;105717;1261;98141;-84
2023/08/31 04:28:18;;;;;;;7.20;1.90;;;;;;;16.34;100.00;99782.69;105653;1264;98506;-84
2023/08/31 04:31:06;;;;;;;3.60;2.10;;;;;;;16.36;100.00;99785.95;105550;1267;101351;-85
2023/08/31 04:33:55;;;;;;;3.40;2.60;;;;;;;16.32;100.00;99784.88;105915;1261;100555;-84
2023/08/31 04:36:41;;;;;;;4.40;2.50;;;;;;;16.30;100.00;99786.56;105681;1261;97911;-83
2023/08/31 04:39:26;;;;;;;4.50;2.20;;;;;;;16.28;100.00;99790.67;105446;1261;97998;-85
2023/08/31 04:42:13;;;;;;;4.10;2.30;;;;;;;16.26;100.00;99794.80;105505;1263;98568;-86
2023/08/31 04:44:58;;;;;;;5.70;2.50;;;;;;;16.23;100.00;99796.27;105500;1267;101340;-83
2023/08/31 04:47:44;;;;;;;4.80;2.40;;;;;;;16.19;100.00;99793.45;105600;1267;100479;-83
2023/08/31 04:50:29;;;;;;;4.80;2.10;;;;;;;16.15;100.00;99794.84;105706;1261;98462;-84
2023/08/31 04:53:15;;;;;;;3.90;1.70;;;;;;;16.12;100.00;99797.31;105669;1266;98753;-83
2023/08/31 04:56:01;;;;;;;3.20;1.40;;;;;;;16.09;100.00;99803.80;105639;1261;98504;-84
2023/08/31 04:58:46;;;;;;;2.70;1.90;;;;;;;16.04;100.00;99807.64;105836;1264;101469;-85
2023/08/31 05:01:32;;;;;;;3.20;1.60;;;;;;;16.00;100.00;99808.98;105676;1261;99155;-85
2023/08/31 05:04:17;;;;;;;3.30;2.00;;;;;;;15.98;100.00;99814.78;105776;1261;99330;-85
2023/08/31 05:07:03;;;;;;;3.50;1.80;;;;;;;15.98;100.00;99810.51;105763;1261;98046;-84
2023/08/31 05:09:50;;;;;;;1.80;1.60;;;;;;;15.99;100.00;99810.25;105649;1261;98481;-84
2023/08/31 05:12:36;;;;;;;3.10;1.70;;;;;;;15.99;100.00;99812.91;105693;1266;102708;-85
2023/08/31 05:15:22;;;;;;;3.60;1.70;;;;;;;15.99;100.00;99820.80;105516;1267;99511;-85
2023/08/31 05:18:08;;;;;;;3.40;1.80;;;;;;;15.99;100.00;99825.77;106058;1266;98772;-84
2023/08/31 05:20:54;;;;;;;2.70;1.70;;;;;;;15.98;100.00;99828.75;105753;1261;97966;-84
2023/08/31 05:23:39;;;;;;;2.90;1.90;;;;;;;15.99;100.00;99833.60;105685;1267;97969;-85
2023/08/31 05:26:24;;;;;;;3.00;1.80;;;;;;;16.01;100.00;99834.60;105452;1261;101452;-86
2023/08/31 05:29:10;;;;;;;4.30;1.90;;;;;;;16.00;100.00;99838.11;105622;1261;99188;-83
2023/08/31 05:31:55;;;;;;;3.80;2.20;;;;;;;16.03;100.00;99844.36;105753;1261;107446;-84
2023/08/31 05:34:41;;;;;;;3.00;1.80;;;;;;;16.02;100.00;99846.98;105672;1264;97851;-85
2023/08/31 05:37:32;;;;;;;2.70;1.80;;;;;;;16.03;100.00;99843.34;105645;1267;98107;-84
2023/08/31 05:40:18;;;;;;;3.50;1.70;;;;;;;16.04;100.00;99845.75;105473;1264;101401;-84
2023/08/31 05:43:04;;;;;;;5.00;1.90;;;;;;;16.06;100.00;99852.69;105688;1264;100439;-84
2023/08/31 05:45:50;;;;;;;2.30;2.00;;;;;;;16.07;100.00;99850.45;105542;1261;97972;-86
2023/08/31 05:48:36;;;;;;;5.20;2.00;;;;;;;16.11;100.00;99849.92;105743;1261;97911;-84
2023/08/31 05:51:22;;;;;;;2.90;2.40;;;;;;;16.13;100.00;99852.73;105965;1265;97973;-86
2023/08/31 05:54:11;;;;;;;6.60;2.70;;;;;;;16.17;100.00;99856.85;105790;1261;101351;-84
2023/08/31 05:56:57;;;;;;;7.40;3.50;;;;;;;16.19;100.00;99860.55;105770;1261;99193;-87
2023/08/31 05:59:43;;;;;;;4.30;2.80;;;;;;;16.20;100.00;99862.86;105517;1261;98022;-83
2023/08/31 06:02:28;;;;;;;4.90;3.90;;;;;;;16.22;100.00;99862.69;105733;1263;97991;-84
2023/08/31 06:05:16;;;;;;;5.70;3.50;;;;;;;16.22;100.00;99858.35;105785;1265;97890;-84
2023/08/31 06:08:02;;;;;;;4.20;3.70;;;;;;;16.25;100.00;99864.14;105631;1267;101479;-84
2023/08/31 06:10:48;;;;;;;5.10;3.70;;;;;;;16.30;100.00;99869.80;105598;1261;99219;-83
2023/08/31 06:13:34;;;;;;;6.50;4.50;;;;;;;16.37;100.00;99872.30;105688;1261;98579;-84
2023/08/31 06:16:19;;;;;;;5.00;4.40;;;;;;;16.41;100.00;99872.83;105740;1267;97886;-87
2023/08/31 06:19:05;;;;;;;5.00;4.50;;;;;;;16.44;100.00;99870.23;105653;1261;98077;-85
2023/08/31 06:21:50;;;;;;;6.90;4.60;;;;;;;16.46;100.00;99870.86;105851;1261;101411;-86
2023/08/31 06:24:36;;;;;;;5.70;4.40;;;;;;;16.48;100.00;99870.52;105826;1261;99296;-84
2023/08/31 06:27:22;;;;;;;7.10;4.40;;;;;;;16.49;100.00;99869.38;105676;1267;98056;-85
2023/08/31 06:30:08;;;;;;;6.10;4.40;;;;;;;16.50;100.00;99872.65;105747;1261;97875;-83
2023/08/31 06:32:54;;;;;;;6.10;4.50;;;;;;;16.54;100.00;99874.72;105817;1261;98058;-85
2023/08/31 06:35:39;;;;;;;4.70;4.00;;;;;;;16.58;100.00;99873.02;105729;1258;111090;-83
2023/08/31 06:38:25;;;;;;;6.40;4.40;;;;;;;16.60;100.00;99876.63;105808;1262;100459;-84
2023/08/31 06:41:11;;;;;;;8.10;4.10;;;;;;;16.64;100.00;99881.87;105749;1260;98730;-83
2023/08/31 06:43:56;;;;;;;4.90;4.20;;;;;;;16.67;100.00;99885.13;105827;1257;98569;-84
2023/08/31 06:46:42;;;;;;;5.20;4.70;;;;;;;16.71;100.00;99885.24;105856;1258;99591;-85
2023/08/31 06:49:28;;;;;;;6.40;5.40;;;;;;;16.74;100.00;99884.76;105871;1258;101434;-84
2023/08/31 06:52:13;;;;;;;6.00;4.50;;;;;;;16.78;100.00;99886.36;105821;1258;99281;-85
2023/08/31 06:54:59;;;;;;;4.60;3.80;;;;;;;16.84;100.00;99888.04;105936;1263;97986;-83
2023/08/31 06:57:46;;;;;;;5.30;3.80;;;;;;;16.92;100.00;99885.45;105789;1266;98016;-83
2023/08/31 07:00:34;;;;;;;6.50;3.90;;;;;;;16.99;100.00;99891.41;105926;1258;98596;-84
2023/08/31 07:03:20;;;;;;;3.90;3.00;;;;;;;17.06;100.00;99892.94;105880;1263;101465;-83
2023/08/31 07:06:05;;;;;;;5.80;3.30;;;;;;;17.11;100.00;99896.91;105659;1265;99733;-85
2023/08/31 07:08:50;;;;;;;4.30;2.80;;;;;;;17.15;100.00;99902.39;105846;1257;99064;-83
2023/08/31 07:11:36;;;;;;;5.80;2.70;;;;;;;17.18;100.00;99901.70;105918;1258;98627;-84
2023/08/31 07:14:22;;;;;;;4.90;2.50;;;;;;;17.24;100.00;99903.95;105837;1260;97998;-84
2023/08/31 07:17:07;;;;;;;3.50;2.40;;;;;;;17.33;100.00;99903.83;105803;1264;102857;-85
2023/08/31 07:19:52;;;;;;;2.60;2.30;;;;;;;17.40;100.00;99903.92;105744;1263;99678;-84
2023/08/31 07:22:38;;;;;;;3.50;2.00;;;;;;;17.47;100.00;99905.77;105868;1262;99659;-84
2023/08/31 07:25:24;;;;;;;5.00;2.50;;;;;;;17.53;100.00;99904.47;105807;1264;98548;-83
2023/08/31 07:28:10;;;;;;;3.40;1.90;;;;;;;17.61;100.00;99904.65;105854;1263;98558;-84
2023/08/31 07:31:06;;;;;;;2.10;1.70;;;;;;;17.67;100.00;99903.77;105699;1264;102065;-85
2023/08/31 07:33:52;;;;;;;3.00;1.90;;;;;;;17.76;100.00;99903.73;105796;1258;100492;-84
2023/08/31 07:36:37;;;;;;;3.90;2.10;;;;;;;17.84;100.00;99903.83;105936;1263;99533;-85
2023/08/31 07:39:23;;;;;;;1.70;1.40;;;;;;;17.94;100.00;99907.65;105915;1263;98085;-84
2023/08/31 07:42:08;;;;;;;3.90;1.70;;;;;;;18.01;100.00;99910.02;105894;1258;98488;-83
2023/08/31 07:44:54;;;;;;;1.80;1.40;;;;;;;18.08;99.67;99907.23;105883;1263;102452;-83
2023/08/31 07:47:39;;;;;;;2.20;1.50;;;;;;;18.15;99.26;99911.59;105812;1258;99186;-83
2023/08/31 07:50:24;;;;;;;3.20;1.80;;;;;;;18.23;98.87;99909.90;105684;1263;99029;-84
2023/08/31 07:53:11;;;;;;;2.30;1.40;;;;;;;18.32;98.48;99912.04;105716;1263;97950;-82
2023/08/31 07:55:57;;;;;;;1.70;1.40;;;;;;;18.42;97.73;99908.84;105824;1258;98513;-83
2023/08/31 07:58:42;;;;;;;2.50;2.00;;;;;;;18.54;97.51;99906.39;105944;1262;101656;-83
2023/08/31 08:01:28;;;;;;;2.00;1.50;;;;;;;18.62;96.57;99913.80;105823;1264;100160;-83
2023/08/31 08:04:14;;;;;;;3.80;1.60;;;;;;;18.69;96.03;99915.02;105798;1257;98362;-85
2023/08/31 08:06:59;;;;;;;2.70;1.30;;;;;;;18.78;96.00;99915.31;106015;1263;98051;-83
2023/08/31 08:09:45;;;;;;;4.70;1.90;;;;;;;18.88;96.39;99915.41;105809;1258;98406;-82
2023/08/31 08:12:39;;;;;;;2.20;1.70;;;;;;;18.96;95.12;99917.98;105877;1258;101460;-82
2023/08/31 08:15:24;;;;;;;4.00;1.60;;;;;;;18.98;94.00;99918.29;105938;1258;99164;-84
2023/08/31 08:18:10;;;;;;;2.60;1.30;;;;;;;19.02;94.03;99913.98;105782;1258;98111;-83
2023/08/31 08:21:07;;;;;;;1.70;1.40;;;;;;;19.08;93.24;99914.46;105875;1260;97978;-83
2023/08/31 08:23:55;;;;;;;2.60;1.30;;;;;;;19.14;92.31;99918.41;105834;1258;97905;-85
2023/08/31 08:26:40;;;;;;;2.80;1.50;;;;;;;19.19;92.27;99922.04;105875;1259;101456;-84
2023/08/31 08:29:25;;;;;;;4.60;1.70;;;;;;;19.26;91.77;99929.59;105783;1258;99605;-83
2023/08/31 08:32:11;;;;;;;2.10;1.40;;;;;;;19.26;89.84;99931.16;105712;1258;99014;-84
2023/08/31 08:34:57;;;;;;;4.00;2.60;;;;;;;19.25;90.62;99933.95;105917;1257;97981;-85
2023/08/31 08:37:42;;;;;;;5.80;1.70;;;;;;;19.30;90.73;99937.66;105753;1258;98045;-85
2023/08/31 08:40:32;;;;;;;2.90;1.80;;;;;;;19.36;91.33;99940.55;106135;1263;102656;-84
2023/08/31 08:43:25;;;;;;;1.80;1.20;;;;;;;19.48;91.97;99943.42;106070;1258;100166;-83
2023/08/31 08:46:10;;;;;;;2.20;1.50;;;;;;;19.57;91.26;99951.01;105786;1263;98007;-86
2023/08/31 08:48:59;;;;;;;2.10;1.50;;;;;;;19.64;90.44;99954.63;105761;1258;98030;-82
2023/08/31 08:51:47;;;;;;;3.90;1.50;;;;;;;19.69;89.85;99957.22;105902;1264;97975;-82
2023/08/31 08:54:34;;;;;;;3.00;1.50;;;;;;;19.73;88.83;99955.45;105944;1263;101389;-83
2023/08/31 08:57:20;;;;;;;3.40;1.90;;;;;;;19.79;89.17;99959.02;105970;1263;99452;-83
2023/08/31 09:00:06;;;;;;;4.00;2.00;;;;;;;19.84;88.37;99961.67;106072;1261;98838;-79
2023/08/31 09:02:52;;;;;;;3.50;1.80;;;;;;;19.91;88.41;99963.72;106318;1260;99138;-83
2023/08/31 09:05:37;;;;;;;2.10;1.60;;;;;;;20.02;88.63;99957.59;105924;1262;97847;-82
2023/08/31 09:08:27;;;;;;;4.00;1.90;;;;;;;20.10;88.23;99959.20;105894;1263;102711;-83
2023/08/31 09:11:22;;;;;;;3.10;2.20;;;;;;;20.12;87.03;99958.52;105927;1264;99237;-84
2023/08/31 09:14:19;;;;;;;2.80;1.80;;;;;;;20.11;86.69;99961.11;105918;1258;98731;-83
2023/08/31 09:17:04;;;;;;;5.60;2.10;;;;;;;20.13;86.63;99962.49;106172;1258;98218;-83
2023/08/31 09:20:05;;;;;;;2.70;2.30;;;;;;;20.11;86.44;99958.13;106146;1258;97210;-83
2023/08/31 09:22:56;;;;;;;3.20;2.40;;;;;;;20.14;86.85;99958.25;105996;1258;101471;-83
2023/08/31 09:25:53;;;;;;;3.10;2.50;;;;;;;20.23;87.27;99962.84;105966;1258;99823;-82
2023/08/31 09:28:46;;;;;;;3.30;2.50;;;;;;;20.29;87.04;99963.79;106045;1258;98452;-83
2023/08/31 09:31:32;;;;;;;;;;;;;;;20.34;86.82;99963.66;106143;1258;97988;-83
2023/08/31 09:34:21;;;;;;;3.90;2.10;;;;;;;20.36;86.37;99964.92;106045;1260;97161;-82
2023/08/31 09:37:09;;;;;;;7.40;2.90;;;;;;;20.40;86.43;99966.77;106244;1258;101356;-82
2023/08/31 09:39:55;;;;;;;7.30;4.10;;;;;;;20.50;86.19;99974.59;106026;1262;100231;-83
2023/08/31 09:42:40;;;;;;;5.10;2.80;;;;;;;20.55;85.57;99971.61;106178;1263;98677;-83
2023/08/31 09:45:30;;;;;;;4.70;2.70;;;;;;;20.57;84.71;99972.38;105875;1258;97994;-83
2023/08/31 09:48:16;;;;;;;3.50;3.20;;;;;;;20.57;84.05;99975.55;105900;1258;97963;-81
2023/08/31 09:51:04;;;;;;;6.90;2.80;;;;;;;20.57;84.06;99978.36;105761;1258;102623;-82
2023/08/31 09:53:57;;;;;;;3.00;2.70;;;;;;;20.56;84.12;99981.36;105921;1258;99977;-83
2023/08/31 09:56:44;;;;;;;3.30;2.70;;;;;;;20.61;84.56;99981.61;106171;1263;98032;-83
2023/08/31 09:59:33;;;;;;;4.70;2.70;;;;;;;20.67;84.91;99985.98;106147;1260;97928;-83
2023/08/31 10:02:29;;;;;;;4.70;2.60;;;;;;;20.72;84.13;99986.65;105904;1265;97975;-82
2023/08/31 10:05:15;;;;;;;5.30;3.00;;;;;;;20.78;84.60;99991.13;105920;1258;102089;-83
2023/08/31 10:08:01;;;;;;;4.30;3.50;;;;;;;20.82;84.00;99993.54;105965;1262;100391;-83
2023/08/31 10:10:47;;;;;;;5.20;3.30;;;;;;;20.80;82.99;99993.85;105991;1260;99048;-83
2023/08/31 10:13:36;;;;;;;3.30;3.00;;;;;;;20.80;82.32;99992.27;105936;1263;98059;-82
2023/08/31 10:16:21;;;;;;;4.30;2.70;;;;;;;20.85;82.95;99993.80;105731;1263;98478;-84
2023/08/31 10:19:07;;;;;;;7.60;3.70;;;;;;;20.90;83.22;99988.98;105898;1258;102316;-82
2023/08/31 10:21:53;;;;;;;3.70;3.00;;;;;;;20.93;83.13;99988.22;105891;1263;99138;-82
2023/08/31 10:24:58;;;;;;;3.30;3.00;;;;;;;20.98;83.45;99986.50;105917;1258;98328;-82
2023/08/31 10:27:50;;;;;;;5.10;3.60;;;;;;;20.99;82.39;99979.63;105965;1263;97869;-83
2023/08/31 10:30:35;;;;;;;4.50;2.90;;;;;;;20.99;82.41;99976.20;105942;1258;98828;-82
2023/08/31 10:33:22;;;;;;;3.60;2.70;;;;;;;21.01;82.35;99975.06;105809;1263;101346;-83
2023/08/31 10:36:19;;;;;;;4.90;3.50;;;;;;;21.04;82.06;99974.42;106056;1258;99188;-83
2023/08/31 10:39:19;;;;;;;4.20;2.90;;;;;;;21.06;81.58;99974.88;105943;1258;100168;-83
2023/08/31 10:42:04;;;;;;;3.00;2.60;;;;;;;21.11;81.88;99976.09;105891;1258;97888;-83
2023/08/31 10:44:50;;;;;;;3.20;2.50;;;;;;;21.20;81.98;99979.92;105853;1258;97968;-82
2023/08/31 10:47:42;;;;;;;4.20;2.70;;;;;;;21.31;82.00;99977.46;105834;1264;101348;-83
2023/08/31 10:50:28;;;;;;;4.20;2.50;;;;;;;21.43;81.76;99978.34;105895;1263;100500;-84
2023/08/31 10:53:13;;;;;;;4.30;2.30;;;;;;;21.52;81.52;99982.37;106002;1263;98515;-83
2023/08/31 10:56:06;;;;;;;3.00;2.70;;;;;;;21.58;80.28;99984.13;106140;1263;97985;-83
2023/08/31 10:58:59;;;;;;;4.10;2.60;;;;;;;21.63;80.31;99986.08;106019;1259;99604;-82
2023/08/31 11:01:53;;;;;;;2.50;2.30;;;;;;;21.70;79.41;99988.09;105936;1258;103045;-84
2023/08/31 11:05:08;;;;;;;4.30;3.20;;;;;;;21.82;79.41;99984.88;105963;1263;99151;-83
2023/08/31 11:07:53;;;;;;;4.20;2.70;;;;;;;21.98;79.74;99988.35;106069;1263;97997;-83
2023/08/31 11:10:40;;;;;;;2.70;2.10;;;;;;;22.08;78.89;99991.28;105988;1263;98019;-83
2023/08/31 11:13:25;;;;;;;2.80;2.20;;;;;;;22.09;78.11;99987.51;105687;1264;98500;-84
2023/08/31 11:16:11;;;;;;;2.70;2.50;;;;;;;22.08;78.02;99991.44;105826;1263;102233;-82
2023/08/31 11:18:56;;;;;;;3.10;2.50;;;;;;;22.04;77.87;99993.95;105866;1260;100766;-83
2023/08/31 11:21:42;;;;;;;3.90;3.00;;;;;;;22.05;78.25;99993.13;105869;1259;97906;-83
2023/08/31 11:24:29;;;;;;;3.60;2.90;;;;;;;22.10;77.88;99992.31;105794;1265;98119;-83
2023/08/31 11:27:19;;;;;;;9.40;4.40;;;;;;;22.14;77.73;99988.75;105840;1264;97994;-83
2023/08/31 11:30:15;;;;;;;3.10;2.80;;;;;;;22.21;78.30;99986.98;106004;1271;102958;-84
2023/08/31 11:33:08;;;;;;;6.10;3.50;;;;;;;22.20;76.99;99982.99;105756;1257;99199;-83
2023/08/31 11:35:54;;;;;;;32.30;25.40;;;;;;;22.16;76.81;99983.27;105878;1258;98987;-82
2023/08/31 11:38:40;;;;;;;51.80;43.30;;;;;;;22.19;77.37;99985.61;105814;1258;97792;-83
2023/08/31 11:41:32;;;;;;;11.30;10.20;;;;;;;22.24;77.11;99988.34;105723;1265;99652;-83
2023/08/31 11:44:18;;;;;;;4.90;4.30;;;;;;;22.22;76.41;99990.13;105831;1263;102676;-83
2023/08/31 11:47:04;;;;;;;3.90;3.20;;;;;;;22.19;76.42;99988.79;105714;1262;100130;-83
2023/08/31 11:49:50;;;;;;;4.30;3.00;;;;;;;22.18;75.55;99987.75;105847;1263;98001;-83
2023/08/31 11:52:38;;;;;;;6.30;3.30;;;;;;;22.15;75.03;99979.46;105746;1263;97933;-83
2023/08/31 11:55:23;;;;;;;4.90;2.90;;;;;;;22.17;75.76;99981.48;105795;1261;98486;-83
2023/08/31 11:58:09;;;;;;;3.70;2.60;;;;;;;22.20;74.81;99978.31;105830;1263;101466;-83
2023/08/31 12:00:57;;;;;;;5.60;2.80;;;;;;;22.19;74.68;99976.19;105732;1263;99783;-83
2023/08/31 12:03:47;;;;;;;2.90;2.60;;;;;;;22.18;73.96;99973.69;105716;1261;98770;-84
2023/08/31 12:06:32;;;;;;;3.30;2.60;;;;;;;22.16;74.10;99974.77;105764;1263;97958;-82
2023/08/31 12:09:17;;;;;;;3.20;2.80;;;;;;;22.20;73.95;99974.38;105827;1263;97975;-84
2023/08/31 12:12:07;;;;;;;5.70;2.60;;;;;;;22.25;73.08;99973.77;105805;1264;102634;-83
2023/08/31 12:14:53;;;;;;;5.00;2.50;;;;;;;22.28;72.55;99974.52;105802;1264;99097;-82
2023/08/31 12:17:39;;;;;;;5.00;2.40;;;;;;;22.34;73.06;99972.96;105962;1262;98445;-83
2023/08/31 12:20:26;;;;;;;8.00;5.50;;;;;;;22.44;72.51;99970.09;105784;1263;97968;-83
2023/08/31 12:23:14;;;;;;;4.00;3.30;;;;;;;22.51;72.04;99967.77;106070;1263;97897;-82
2023/08/31 12:26:02;;;;;;;3.10;2.80;;;;;;;22.59;72.07;99960.81;105883;1263;102826;-82
2023/08/31 12:28:48;;;;;;;3.20;2.80;;;;;;;22.68;71.82;99955.10;105805;1261;100040;-82
2023/08/31 12:31:34;;;;;;;5.40;3.10;;;;;;;22.75;72.14;99953.47;105728;1263;99096;-83
2023/08/31 12:34:20;;;;;;;2.80;2.60;;;;;;;22.75;70.84;99952.17;105687;1259;98010;-84
2023/08/31 12:37:07;;;;;;;2.40;2.20;;;;;;;22.67;70.22;99949.76;105774;1265;98494;-83
2023/08/31 12:39:53;;;;;;;3.20;2.60;;;;;;;22.62;70.16;99949.17;105999;1263;102271;-83
2023/08/31 12:42:38;;;;;;;3.80;2.40;;;;;;;22.58;70.42;99951.64;105847;1263;99175;-83
2023/08/31 12:45:29;;;;;;;8.00;3.10;;;;;;;22.55;70.95;99949.78;105887;1261;130689;-82
2023/08/31 12:48:15;;;;;;;5.20;2.60;;;;;;;22.50;70.85;99951.82;105941;1264;98084;-82
2023/08/31 12:51:01;;;;;;;4.30;2.60;;;;;;;22.38;70.37;99957.77;105759;1264;98504;-82